Scotland, Indiana
Current Conditions -  °F | °C
As of 7:35 PM on Saturday 22 Nov 2014 (Local Time) from KDCY Reporting Station
Overcast Overcast  
Wind Chill: 51°   Ceiling: 8500
Heat Index: 51°   Visibility: 10mi
Dew Point: 44°   Wind: 7mph
Humidity: 76%   Direction: 160°SSE
Pressure: 30.03"   Gusts: NA
Location:  38.91°N, 86.9°W
Report Text: KDCY 230035Z AUTO 16006KT 10SM BKN085 OVC100 10/06 A3003 RMK AO2 T01040064
Loading
Personal Weather Stations






























Interactive Weather Map New forecast layout! Learn more

10-Day Weather Forecast

Advertisements
Track Severe Weather on mobile